Time;durP1;ratioP1;P1;durP2;ratioP2;P2;SDS_P1;SDS_P2;PMS_P1;PMS_P2;Temp;Humidity;BMP_temperature;BMP_pressure;BME280_temperature;BME280_humidity;BME280_pressure;Samples;Min_cycle;Max_cycle;Signal;HPM_P1;HPM_P2
2022/04/04 00:00:48;;;;;;;8.55;4.20;;;3.50;99.90;;;;;;5111620;28;20122;-52
2022/04/04 00:03:14;;;;;;;7.50;3.65;;;3.50;99.90;;;;;;5110751;28;20351;-52
2022/04/04 00:05:40;;;;;;;9.07;4.43;;;3.50;99.90;;;;;;5109456;28;20040;-52
2022/04/04 00:08:06;;;;;;;10.10;4.10;;;3.40;99.90;;;;;;5110933;28;20093;-51
2022/04/04 00:10:32;;;;;;;8.68;4.05;;;3.40;99.90;;;;;;5111670;28;20050;-55
2022/04/04 00:12:58;;;;;;;8.73;4.32;;;3.40;99.90;;;;;;5111364;28;20043;-53
2022/04/04 00:15:23;;;;;;;8.23;3.85;;;3.40;99.90;;;;;;5113367;28;20123;-52
2022/04/04 00:17:50;;;;;;;8.57;3.92;;;3.30;99.90;;;;;;5114952;28;20081;-52
2022/04/04 00:20:16;;;;;;;7.22;4.20;;;3.30;99.90;;;;;;5115340;28;20081;-52
2022/04/04 00:22:42;;;;;;;7.85;4.00;;;3.30;99.90;;;;;;5115339;28;20046;-52
2022/04/04 00:25:08;;;;;;;6.95;4.22;;;3.30;99.90;;;;;;5115262;28;20042;-52
2022/04/04 00:27:34;;;;;;;9.60;3.92;;;3.30;99.90;;;;;;5115237;28;20406;-54
2022/04/04 00:30:00;;;;;;;6.45;3.63;;;3.30;99.90;;;;;;5110646;28;20110;-52
2022/04/04 00:32:26;;;;;;;9.27;3.95;;;3.40;99.90;;;;;;5103420;28;20123;-52
2022/04/04 00:34:51;;;;;;;7.22;3.90;;;3.30;99.90;;;;;;5111381;28;20050;-51
2022/04/04 00:37:17;;;;;;;9.48;3.90;;;3.40;99.90;;;;;;5114720;28;20028;-55
2022/04/04 00:39:42;;;;;;;8.32;4.15;;;3.30;99.90;;;;;;5115419;28;20036;-52
2022/04/04 00:42:08;;;;;;;7.88;4.03;;;3.40;99.90;;;;;;5114982;28;20122;-51
2022/04/04 00:44:34;;;;;;;8.35;4.72;;;3.50;99.90;;;;;;5115189;28;20039;-51
2022/04/04 00:46:59;;;;;;;12.02;4.90;;;3.50;99.90;;;;;;5108123;28;20515;-52
2022/04/04 00:49:25;;;;;;;9.93;4.72;;;3.50;99.90;;;;;;5113633;28;20050;-51
2022/04/04 00:51:51;;;;;;;11.40;5.35;;;3.60;99.90;;;;;;5114793;28;20043;-52
2022/04/04 00:54:17;;;;;;;8.43;5.13;;;3.70;99.90;;;;;;5096372;28;20149;-52
2022/04/04 00:56:43;;;;;;;10.00;5.50;;;3.70;99.90;;;;;;5114777;28;20047;-52
2022/04/04 00:59:14;;;;;;;13.85;7.10;;;3.70;99.90;;;;;;5114522;28;20043;-52
2022/04/04 01:01:39;;;;;;;13.20;7.35;;;3.70;99.90;;;;;;5090446;28;20039;-52
2022/04/04 01:04:06;;;;;;;12.40;8.05;;;3.80;99.90;;;;;;5114424;28;20081;-53
2022/04/04 01:06:31;;;;;;;14.77;8.50;;;3.80;99.90;;;;;;5114058;28;20031;-52
2022/04/04 01:08:57;;;;;;;12.45;8.23;;;3.80;99.90;;;;;;5114841;28;20552;-53
2022/04/04 01:11:22;;;;;;;15.23;8.30;;;3.80;99.90;;;;;;5095255;28;20038;-55
2022/04/04 01:13:49;;;;;;;14.88;8.57;;;3.90;99.90;;;;;;5114719;28;20028;-51
2022/04/04 01:16:16;;;;;;;11.23;7.57;;;3.90;99.90;;;;;;5114180;28;20035;-51
2022/04/04 01:18:42;;;;;;;16.65;8.75;;;3.90;99.90;;;;;;5114148;28;20073;-51
2022/04/04 01:21:09;;;;;;;14.85;8.38;;;4.00;99.90;;;;;;5114159;28;20082;-52
2022/04/04 01:23:40;;;;;;;14.38;8.82;;;4.00;99.90;;;;;;5114465;28;20491;-53
2022/04/04 01:26:10;;;;;;;13.63;8.25;;;4.00;99.90;;;;;;5113647;28;20027;-51
2022/04/04 01:28:38;;;;;;;12.68;7.75;;;4.00;99.90;;;;;;5113749;28;20414;-54
2022/04/04 01:31:04;;;;;;;17.17;8.82;;;4.10;99.90;;;;;;5114142;28;20577;-51
2022/04/04 01:33:30;;;;;;;14.68;8.68;;;4.20;99.90;;;;;;5113502;28;20483;-52
2022/04/04 01:35:57;;;;;;;13.60;8.00;;;4.10;99.90;;;;;;5114290;28;20043;-51
2022/04/04 01:38:23;;;;;;;15.38;8.27;;;4.10;99.90;;;;;;5112991;28;20390;-53
2022/04/04 01:40:50;;;;;;;12.20;8.00;;;4.20;99.90;;;;;;5113792;28;20050;-51
2022/04/04 01:43:16;;;;;;;12.50;8.38;;;4.20;99.90;;;;;;5106457;28;20042;-51
2022/04/04 01:48:26;;;;;;;14.73;8.20;;;4.20;99.90;;;;;;5113676;28;20078;-52
2022/04/04 01:50:51;;;;;;;13.60;7.75;;;4.20;99.90;;;;;;5113626;28;20075;-50
2022/04/04 01:53:26;;;;;;;12.60;8.30;;;4.30;99.90;;;;;;5113959;28;20577;-55
2022/04/04 01:55:57;;;;;;;15.88;8.55;;;4.20;99.90;;;;;;5113636;28;20088;-51
2022/04/04 01:58:26;;;;;;;16.85;9.07;;;4.20;99.90;;;;;;5113061;28;20441;-52
2022/04/04 02:00:53;;;;;;;16.52;9.45;;;4.20;99.90;;;;;;5113703;28;20039;-52
2022/04/04 02:03:19;;;;;;;18.33;9.43;;;4.20;99.90;;;;;;5113609;28;20031;-52
2022/04/04 02:05:45;;;;;;;15.68;9.85;;;4.20;99.90;;;;;;5113602;28;20031;-53
2022/04/04 02:08:10;;;;;;;16.35;10.23;;;4.20;99.90;;;;;;5094849;28;20035;-51
2022/04/04 02:10:36;;;;;;;15.18;9.63;;;4.20;99.90;;;;;;5113497;28;20053;-51
2022/04/04 02:13:01;;;;;;;18.77;10.13;;;4.20;99.90;;;;;;5112825;28;20042;-53
2022/04/04 02:15:27;;;;;;;14.70;9.27;;;4.20;99.90;;;;;;5113558;28;20035;-51
2022/04/04 02:17:53;;;;;;;20.85;10.07;;;4.20;99.90;;;;;;5112951;28;20115;-52
2022/04/04 02:20:19;;;;;;;21.90;10.38;;;4.20;99.90;;;;;;5113094;28;20043;-52
2022/04/04 02:22:45;;;;;;;17.75;9.75;;;4.30;99.90;;;;;;5113084;28;20075;-51
2022/04/04 02:25:12;;;;;;;17.85;10.55;;;4.30;99.90;;;;;;5113034;28;20080;-52
2022/04/04 02:27:38;;;;;;;19.27;10.00;;;4.40;99.90;;;;;;5112489;28;20391;-53
2022/04/04 02:30:04;;;;;;;19.30;9.63;;;4.40;99.90;;;;;;5104423;28;20042;-53
2022/04/04 02:32:29;;;;;;;19.38;10.05;;;4.40;99.90;;;;;;5106593;28;20406;-51
2022/04/04 02:34:55;;;;;;;17.23;9.50;;;4.40;99.90;;;;;;5112394;28;20035;-50
2022/04/04 02:37:20;;;;;;;19.63;10.45;;;4.50;99.90;;;;;;5111793;28;20085;-52
2022/04/04 02:39:46;;;;;;;21.92;11.18;;;4.50;99.90;;;;;;5112963;28;20406;-51
2022/04/04 02:42:12;;;;;;;17.17;10.30;;;4.50;99.90;;;;;;5111971;28;20035;-50
2022/04/04 02:44:37;;;;;;;18.33;10.90;;;4.50;99.90;;;;;;5111536;28;20036;-52
2022/04/04 02:47:03;;;;;;;15.93;9.73;;;4.50;99.90;;;;;;5112237;28;20047;-53
2022/04/04 02:49:29;;;;;;;16.80;10.20;;;4.50;99.90;;;;;;5112242;28;20066;-52
2022/04/04 02:51:55;;;;;;;18.02;10.32;;;4.60;99.90;;;;;;5112668;28;20092;-51
2022/04/04 02:54:21;;;;;;;21.40;10.63;;;4.60;99.90;;;;;;5112394;28;20046;-52
2022/04/04 02:56:47;;;;;;;15.95;9.38;;;4.60;99.90;;;;;;5094235;28;20040;-52
2022/04/04 02:59:13;;;;;;;18.45;9.38;;;4.70;99.90;;;;;;5112594;28;20035;-51
2022/04/04 03:01:38;;;;;;;21.80;10.15;;;4.70;99.90;;;;;;5112403;28;20391;-52
2022/04/04 03:04:04;;;;;;;17.85;9.70;;;4.70;99.90;;;;;;5112262;28;20039;-52
2022/04/04 03:06:30;;;;;;;17.77;9.73;;;4.70;99.90;;;;;;5112115;28;20544;-51
2022/04/04 03:08:56;;;;;;;16.95;9.90;;;4.80;99.90;;;;;;5112398;28;20054;-53
2022/04/04 03:11:22;;;;;;;18.17;10.00;;;4.80;99.90;;;;;;5111769;28;20036;-51
2022/04/04 03:13:48;;;;;;;19.70;10.05;;;4.80;99.90;;;;;;5112200;28;20035;-52
2022/04/04 03:16:14;;;;;;;15.63;10.00;;;5.30;99.90;;;;;;5111984;28;20066;-52
2022/04/04 03:18:41;;;;;;;16.50;9.23;;;4.90;99.90;;;;;;5111969;28;20035;-52
2022/04/04 03:21:07;;;;;;;21.38;9.60;;;5.00;99.90;;;;;;5111880;28;20044;-53
2022/04/04 03:23:39;;;;;;;14.75;8.80;;;5.00;99.90;;;;;;5112113;28;20449;-52
2022/04/04 03:26:05;;;;;;;15.70;8.73;;;5.00;99.90;;;;;;5111507;28;20043;-52
2022/04/04 03:28:31;;;;;;;20.52;10.23;;;5.00;99.90;;;;;;5076843;28;20078;-51
2022/04/04 03:30:56;;;;;;;16.13;10.15;;;5.10;99.90;;;;;;5111819;28;20059;-52
2022/04/04 03:33:22;;;;;;;17.90;9.77;;;5.10;99.90;;;;;;5112159;28;20035;-52
2022/04/04 03:35:48;;;;;;;19.30;9.05;;;5.10;99.90;;;;;;5111497;28;20399;-52
2022/04/04 03:38:14;;;;;;;16.90;9.02;;;5.10;99.90;;;;;;5111667;28;20030;-52
2022/04/04 03:40:40;;;;;;;19.58;10.35;;;5.10;99.90;;;;;;5111608;28;20139;-52
2022/04/04 03:43:06;;;;;;;19.65;10.20;;;5.20;99.90;;;;;;5104140;28;20411;-52
2022/04/04 03:45:32;;;;;;;14.60;9.07;;;5.20;99.90;;;;;;5111878;28;20035;-52
2022/04/04 03:47:58;;;;;;;17.85;9.60;;;5.20;99.90;;;;;;5111217;28;20410;-52
2022/04/04 03:50:26;;;;;;;13.68;8.80;;;5.20;99.90;;;;;;5111596;28;20032;-52
2022/04/04 03:52:53;;;;;;;18.58;9.13;;;5.20;99.90;;;;;;5111831;28;20046;-52
2022/04/04 03:55:20;;;;;;;16.67;10.18;;;5.30;99.90;;;;;;5111492;28;20047;-55
2022/04/04 03:57:48;;;;;;;18.83;9.55;;;5.20;99.90;;;;;;5111540;28;20039;-52
2022/04/04 04:00:14;;;;;;;17.60;10.02;;;5.20;99.90;;;;;;5103548;28;20039;-52
2022/04/04 04:02:40;;;;;;;14.63;8.13;;;5.20;99.90;;;;;;5093478;28;20043;-53
2022/04/04 04:05:07;;;;;;;17.17;10.05;;;5.20;99.90;;;;;;5111202;28;20376;-51
2022/04/04 04:07:33;;;;;;;17.60;9.70;;;5.20;99.90;;;;;;5111271;28;20040;-53
2022/04/04 04:09:58;;;;;;;19.52;9.82;;;5.30;99.90;;;;;;5111843;28;20119;-51
2022/04/04 04:12:24;;;;;;;16.85;9.02;;;5.30;99.90;;;;;;5111198;28;20399;-52
2022/04/04 04:14:51;;;;;;;15.93;9.40;;;5.20;99.90;;;;;;5111731;28;20055;-52
2022/04/04 04:17:19;;;;;;;17.55;9.43;;;5.30;99.90;;;;;;5110892;28;20059;-54
2022/04/04 04:22:30;;;;;;;16.67;8.88;;;5.30;99.90;;;;;;5103495;28;20035;-51
2022/04/04 04:24:57;;;;;;;17.35;10.55;;;5.40;99.90;;;;;;5076495;28;20510;-50
2022/04/04 04:27:22;;;;;;;13.35;9.18;;;5.30;99.90;;;;;;5110847;28;20481;-52
2022/04/04 04:29:48;;;;;;;16.02;9.73;;;5.30;99.90;;;;;;5111139;28;20050;-55
2022/04/04 04:32:13;;;;;;;20.73;10.57;;;5.40;99.90;;;;;;5111012;28;20035;-55
2022/04/04 04:34:39;;;;;;;14.82;9.57;;;5.40;99.90;;;;;;5111171;28;20509;-55
2022/04/04 04:37:05;;;;;;;15.05;10.38;;;5.40;99.90;;;;;;5110964;28;20491;-55
2022/04/04 04:39:31;;;;;;;19.00;10.80;;;5.30;99.90;;;;;;5111207;28;20506;-55
2022/04/04 04:41:57;;;;;;;17.50;10.48;;;5.40;99.90;;;;;;5117784;22;20136;-51
2022/04/04 04:44:23;;;;;;;17.73;9.70;;;5.30;99.90;;;;;;5069979;28;20396;-53
2022/04/04 04:46:49;;;;;;;15.45;10.07;;;5.30;99.90;;;;;;5070365;28;20537;-52
2022/04/04 04:49:15;;;;;;;19.25;11.00;;;5.30;99.90;;;;;;5070359;28;20119;-53
2022/04/04 04:51:41;;;;;;;19.45;11.82;;;5.30;99.90;;;;;;5072490;28;20063;-53
2022/04/04 04:54:08;;;;;;;19.10;11.93;;;5.20;99.90;;;;;;5090886;28;20032;-53
2022/04/04 04:56:35;;;;;;;20.52;12.18;;;5.20;99.90;;;;;;5090219;28;20560;-52
2022/04/04 04:59:02;;;;;;;17.60;11.85;;;5.20;99.90;;;;;;5090209;28;20036;-52
2022/04/04 05:01:27;;;;;;;20.60;11.15;;;5.10;99.90;;;;;;5092474;28;20032;-54
2022/04/04 05:03:53;;;;;;;22.52;12.27;;;5.10;99.90;;;;;;5094031;28;20468;-49
2022/04/04 05:06:18;;;;;;;19.65;12.88;;;5.10;99.90;;;;;;5093608;28;20032;-51
2022/04/04 05:08:44;;;;;;;24.42;11.82;;;5.10;99.90;;;;;;5076233;28;20047;-52
2022/04/04 05:11:09;;;;;;;18.85;12.45;;;5.10;99.90;;;;;;5093775;28;20407;-54
2022/04/04 05:13:35;;;;;;;19.13;10.90;;;5.10;99.90;;;;;;5093206;28;20399;-51
2022/04/04 05:16:04;;;;;;;20.38;11.65;;;5.10;99.90;;;;;;5086363;28;20043;-53
2022/04/04 05:18:30;;;;;;;18.33;11.82;;;5.20;99.90;;;;;;5093386;28;20124;-54
2022/04/04 05:20:55;;;;;;;18.48;11.10;;;5.10;99.90;;;;;;5093209;28;20138;-50
2022/04/04 05:23:21;;;;;;;15.18;9.77;;;5.10;99.90;;;;;;5092346;28;20032;-53
2022/04/04 05:25:46;;;;;;;19.58;10.73;;;5.10;99.90;;;;;;5084250;28;20032;-52
2022/04/04 05:28:12;;;;;;;17.95;10.60;;;5.20;99.90;;;;;;5068426;28;20085;-55
2022/04/04 05:30:38;;;;;;;17.85;10.55;;;5.20;99.90;;;;;;5089885;28;20123;-52
2022/04/04 05:33:03;;;;;;;20.27;10.50;;;5.20;99.90;;;;;;5093386;28;20052;-52
2022/04/04 05:35:29;;;;;;;16.13;10.00;;;5.20;99.90;;;;;;5092831;28;20040;-54
2022/04/04 05:37:55;;;;;;;17.77;10.45;;;5.20;99.90;;;;;;5092758;28;20037;-55
2022/04/04 05:40:24;;;;;;;17.50;10.07;;;5.20;99.90;;;;;;5093672;28;20028;-50
2022/04/04 05:42:50;;;;;;;17.23;9.68;;;5.30;99.90;;;;;;5093698;28;20036;-50
2022/04/04 05:45:16;;;;;;;15.68;9.18;;;5.30;99.90;;;;;;5093658;28;20429;-52
2022/04/04 05:47:42;;;;;;;14.77;9.00;;;5.40;99.90;;;;;;5092246;28;20028;-52
2022/04/04 05:50:08;;;;;;;16.25;9.23;;;5.40;99.90;;;;;;5092870;28;20078;-53
2022/04/04 05:52:35;;;;;;;14.68;9.55;;;5.40;99.90;;;;;;5090764;28;20075;-50
2022/04/04 05:55:04;;;;;;;16.42;9.68;;;5.40;99.90;;;;;;5085214;28;20517;-49
2022/04/04 05:57:35;;;;;;;14.52;8.95;;;5.40;99.90;;;;;;5086498;28;20040;-53
2022/04/04 06:00:03;;;;;;;15.82;9.73;;;5.40;99.90;;;;;;5088425;28;20036;-54
2022/04/04 06:02:29;;;;;;;14.20;8.55;;;5.50;99.90;;;;;;5086214;28;20119;-50
2022/04/04 06:04:56;;;;;;;15.20;9.15;;;5.50;99.90;;;;;;5083339;28;20112;-53
2022/04/04 06:07:21;;;;;;;14.30;9.30;;;5.50;99.90;;;;;;5070075;28;20036;-54
2022/04/04 06:09:47;;;;;;;18.52;8.77;;;5.50;99.90;;;;;;5088332;28;20032;-53
2022/04/04 06:12:13;;;;;;;16.75;9.05;;;5.50;99.90;;;;;;5086977;28;20488;-52
2022/04/04 06:14:39;;;;;;;16.70;8.90;;;5.60;99.90;;;;;;5089251;28;20070;-49
2022/04/04 06:17:08;;;;;;;15.02;7.95;;;5.60;99.90;;;;;;5090372;28;20067;-51
2022/04/04 06:19:34;;;;;;;14.50;8.65;;;5.60;99.90;;;;;;5091204;28;20040;-50
2022/04/04 06:22:03;;;;;;;13.90;9.10;;;5.50;99.90;;;;;;5090399;28;20036;-55
2022/04/04 06:24:31;;;;;;;13.65;9.02;;;5.60;99.90;;;;;;5083238;28;20424;-54
2022/04/04 06:27:00;;;;;;;17.45;8.85;;;5.50;99.90;;;;;;5086704;28;20060;-51
2022/04/04 06:29:26;;;;;;;13.32;8.60;;;5.60;99.90;;;;;;5091831;28;20067;-53
2022/04/04 06:31:52;;;;;;;15.13;9.15;;;5.50;99.90;;;;;;5089479;28;20032;-55
2022/04/04 06:34:18;;;;;;;18.05;9.50;;;5.60;99.90;;;;;;5084825;28;20177;-51
2022/04/04 06:36:44;;;;;;;14.65;8.63;;;5.50;99.90;;;;;;5087696;28;20441;-52
2022/04/04 06:39:10;;;;;;;17.08;9.18;;;5.50;99.90;;;;;;5082690;28;20044;-49
2022/04/04 06:41:36;;;;;;;16.15;9.55;;;5.40;99.90;;;;;;5090361;28;20047;-52
2022/04/04 06:44:05;;;;;;;17.30;8.38;;;5.40;99.90;;;;;;5072282;28;20036;-53
2022/04/04 06:46:31;;;;;;;14.70;8.50;;;5.40;99.90;;;;;;5092228;28;20105;-53
2022/04/04 06:48:57;;;;;;;15.70;8.57;;;5.40;99.90;;;;;;5092107;28;20051;-52
2022/04/04 06:51:23;;;;;;;20.55;9.20;;;5.40;99.90;;;;;;5092370;28;20036;-52
2022/04/04 06:53:48;;;;;;;15.60;9.02;;;5.40;99.90;;;;;;5085245;28;21399;-54
2022/04/04 06:56:14;;;;;;;15.88;9.02;;;5.40;99.90;;;;;;5086247;28;20079;-52
2022/04/04 06:58:40;;;;;;;20.02;9.80;;;5.30;99.90;;;;;;5088981;28;20119;-52
2022/04/04 07:01:07;;;;;;;15.40;9.20;;;5.30;99.90;;;;;;5092362;28;20036;-52
2022/04/04 07:03:32;;;;;;;20.98;10.77;;;5.30;99.90;;;;;;5092170;28;20085;-51
2022/04/04 07:05:59;;;;;;;15.55;10.20;;;5.30;99.90;;;;;;5091883;28;20044;-55
2022/04/04 07:08:24;;;;;;;16.90;9.93;;;5.30;99.90;;;;;;5072045;28;20040;-52
2022/04/04 07:10:51;;;;;;;17.08;9.93;;;5.30;99.90;;;;;;5090742;28;20047;-53
2022/04/04 07:13:17;;;;;;;18.23;11.38;;;5.30;99.90;;;;;;5083926;28;20036;-52
2022/04/04 07:15:43;;;;;;;20.98;10.80;;;5.30;99.90;;;;;;5087816;28;20047;-49
2022/04/04 07:18:09;;;;;;;16.70;10.35;;;5.30;99.90;;;;;;5091410;28;20071;-52
2022/04/04 07:20:35;;;;;;;19.17;11.35;;;5.30;99.90;;;;;;5091897;28;20487;-52
2022/04/04 07:23:01;;;;;;;18.10;10.77;;;5.30;99.90;;;;;;5091000;28;20032;-53
2022/04/04 07:25:28;;;;;;;17.95;10.65;;;5.30;99.90;;;;;;5090989;28;20032;-52
2022/04/04 07:27:54;;;;;;;22.13;12.02;;;5.20;99.90;;;;;;5090922;28;20075;-53
2022/04/04 07:30:20;;;;;;;23.20;13.25;;;5.20;99.90;;;;;;5066282;28;20076;-50
2022/04/04 07:32:48;;;;;;;20.48;12.45;;;5.20;99.90;;;;;;5085141;28;20063;-52
2022/04/04 07:35:13;;;;;;;17.95;12.13;;;5.20;99.90;;;;;;5087554;28;20384;-50
2022/04/04 07:37:44;;;;;;;21.05;13.35;;;5.20;99.90;;;;;;5090188;28;20036;-50
2022/04/04 07:40:13;;;;;;;17.65;11.52;;;5.30;99.90;;;;;;5072396;28;20040;-52
2022/04/04 07:42:39;;;;;;;17.85;12.15;;;5.30;99.90;;;;;;5091531;28;20130;-50
2022/04/04 07:45:07;;;;;;;17.98;12.93;;;5.30;99.90;;;;;;5072532;28;20036;-51
2022/04/04 07:47:33;;;;;;;20.02;13.43;;;5.30;99.90;;;;;;5072135;28;20047;-52
2022/04/04 07:49:59;;;;;;;19.38;11.98;;;5.40;99.90;;;;;;5089663;28;20023;-52
2022/04/04 07:52:26;;;;;;;22.20;13.45;;;5.30;99.90;;;;;;5086956;28;20031;-51
2022/04/04 07:54:53;;;;;;;19.52;13.70;;;5.30;99.90;;;;;;5083844;28;20115;-52
2022/04/04 07:57:19;;;;;;;18.80;13.27;;;5.40;99.90;;;;;;5090937;28;20032;-52
2022/04/04 07:59:45;;;;;;;19.77;14.10;;;5.40;99.90;;;;;;5091144;28;20392;-51
2022/04/04 08:02:10;;;;;;;20.13;12.55;;;5.30;99.90;;;;;;5091128;28;20039;-56
2022/04/04 08:04:36;;;;;;;20.65;13.07;;;5.40;99.90;;;;;;5090391;28;20044;-51
2022/04/04 08:07:02;;;;;;;21.48;12.77;;;5.40;99.90;;;;;;5088224;28;20040;-52
2022/04/04 08:09:28;;;;;;;20.38;14.07;;;5.40;99.90;;;;;;5086522;28;20075;-51
2022/04/04 08:11:54;;;;;;;20.83;12.70;;;5.40;99.90;;;;;;5082879;28;20072;-52
2022/04/04 08:14:21;;;;;;;21.58;13.70;;;5.40;99.90;;;;;;5091180;28;20104;-52
2022/04/04 08:16:47;;;;;;;21.45;13.30;;;5.50;99.90;;;;;;5090788;28;20415;-49
2022/04/04 08:19:13;;;;;;;19.58;11.73;;;5.50;99.90;;;;;;5091233;28;20040;-51
2022/04/04 08:21:41;;;;;;;15.95;11.23;;;5.60;99.90;;;;;;5090544;28;20040;-51
2022/04/04 08:24:07;;;;;;;17.88;11.82;;;5.50;99.90;;;;;;5088637;28;20039;-53
2022/04/04 08:26:34;;;;;;;16.23;10.23;;;5.60;99.90;;;;;;5081248;28;20043;-51
2022/04/04 08:29:00;;;;;;;15.95;11.32;;;5.60;99.90;;;;;;5052484;28;20507;-52
2022/04/04 08:31:25;;;;;;;14.93;10.43;;;5.60;99.90;;;;;;5089528;28;20040;-52
2022/04/04 08:33:51;;;;;;;17.83;11.82;;;5.60;99.90;;;;;;5083165;28;20032;-51
2022/04/04 08:36:16;;;;;;;20.02;12.40;;;5.60;99.90;;;;;;5083961;28;20051;-53
2022/04/04 08:38:42;;;;;;;19.45;11.90;;;5.60;99.90;;;;;;5094787;28;20036;-53
2022/04/04 08:41:10;;;;;;;17.52;11.75;;;5.70;99.90;;;;;;5087232;28;20036;-53
2022/04/04 08:43:42;;;;;;;19.20;10.80;;;5.60;99.90;;;;;;5093568;28;20039;-51
2022/04/04 08:46:08;;;;;;;17.73;10.95;;;5.70;99.90;;;;;;5094705;28;20060;-52
2022/04/04 08:48:39;;;;;;;19.00;12.23;;;5.70;99.90;;;;;;5094540;28;20483;-51
2022/04/04 08:51:09;;;;;;;15.05;9.70;;;5.70;99.90;;;;;;5094262;28;20569;-52
2022/04/04 08:53:37;;;;;;;17.08;10.52;;;5.70;99.90;;;;;;5093227;28;20503;-51
2022/04/04 08:56:04;;;;;;;16.08;9.35;;;5.70;99.90;;;;;;5076323;28;20487;-55
2022/04/04 08:58:30;;;;;;;15.13;10.00;;;5.70;99.90;;;;;;5089098;28;20037;-51
2022/04/04 09:00:55;;;;;;;11.10;8.00;;;5.80;99.90;;;;;;5094111;28;20032;-51
2022/04/04 09:03:23;;;;;;;14.73;8.73;;;5.70;99.90;;;;;;5094201;28;20034;-50
2022/04/04 09:05:56;;;;;;;13.70;7.32;;;5.80;99.90;;;;;;5094149;28;20566;-52
2022/04/04 09:08:23;;;;;;;15.55;7.88;;;5.90;99.90;;;;;;5093916;28;20046;-51
2022/04/04 09:10:54;;;;;;;15.82;8.60;;;5.80;99.90;;;;;;5093855;28;20452;-52
2022/04/04 09:13:20;;;;;;;10.68;7.43;;;5.80;99.90;;;;;;5094057;28;20093;-53
2022/04/04 09:15:52;;;;;;;13.70;6.65;;;5.90;99.90;;;;;;5094016;28;20040;-50
2022/04/04 09:18:19;;;;;;;12.82;6.07;;;5.90;99.90;;;;;;5075503;28;20093;-52
2022/04/04 09:20:49;;;;;;;11.77;6.72;;;5.90;99.90;;;;;;5090449;28;20029;-51
2022/04/04 09:23:15;;;;;;;11.80;6.93;;;5.90;99.90;;;;;;5093683;28;20488;-52
2022/04/04 09:25:41;;;;;;;11.70;6.25;;;5.90;99.90;;;;;;5093527;28;20058;-49
2022/04/04 09:28:17;;;;;;;8.63;5.22;;;5.90;99.90;;;;;;5093083;28;20028;-52
2022/04/04 09:31:03;;;;;;;6.75;4.55;;;5.90;99.90;;;;;;5075919;28;20052;-54
2022/04/04 09:33:40;;;;;;;7.07;4.18;;;5.80;99.90;;;;;;5088525;28;20483;-50
2022/04/04 09:36:07;;;;;;;9.18;4.03;;;5.80;99.90;;;;;;5093653;28;20445;-52
2022/04/04 09:38:34;;;;;;;7.75;4.80;;;5.80;99.90;;;;;;5093501;28;20036;-52
2022/04/04 09:41:06;;;;;;;6.93;4.05;;;5.80;99.90;;;;;;5092732;28;20036;-51
2022/04/04 09:43:57;;;;;;;6.55;2.72;;;5.80;99.90;;;;;;5093449;28;20100;-52
2022/04/04 09:46:23;;;;;;;8.02;4.00;;;5.80;99.90;;;;;;5092937;28;20028;-51
2022/04/04 09:49:06;;;;;;;6.45;3.33;;;5.80;99.90;;;;;;5093640;28;20054;-51
2022/04/04 09:51:45;;;;;;;8.00;3.85;;;5.90;99.90;;;;;;5085896;28;20294;-53
2022/04/04 09:54:15;;;;;;;7.50;3.88;;;5.90;99.90;;;;;;5093420;28;20086;-53
2022/04/04 09:56:41;;;;;;;7.75;4.30;;;5.90;99.90;;;;;;5088842;28;20044;-52
2022/04/04 09:59:11;;;;;;;7.50;4.30;;;5.90;99.90;;;;;;5089154;28;20110;-53
2022/04/04 10:01:38;;;;;;;7.72;4.65;;;5.90;99.90;;;;;;5092618;28;20400;-52
2022/04/04 10:04:07;;;;;;;6.10;4.18;;;5.90;99.90;;;;;;5075142;28;20024;-54
2022/04/04 10:06:34;;;;;;;4.55;3.50;;;5.90;99.90;;;;;;5091829;28;20032;-54
2022/04/04 10:09:00;;;;;;;6.90;3.80;;;6.00;99.90;;;;;;5092367;28;20040;-52
2022/04/04 10:11:27;;;;;;;7.60;4.15;;;6.00;99.90;;;;;;5072518;28;20063;-52
2022/04/04 10:13:54;;;;;;;5.95;3.63;;;6.00;99.90;;;;;;5088533;28;20114;-52
2022/04/04 10:16:24;;;;;;;8.10;4.03;;;6.10;99.90;;;;;;5074720;28;20115;-52
2022/04/04 10:18:51;;;;;;;6.78;4.10;;;6.10;99.90;;;;;;5092715;28;20755;-51
2022/04/04 10:21:18;;;;;;;6.50;4.35;;;6.20;99.90;;;;;;5092550;28;20487;-53
2022/04/04 10:23:46;;;;;;;10.07;4.40;;;6.20;99.90;;;;;;5072347;28;20134;-53
2022/04/04 10:26:15;;;;;;;8.57;4.20;;;6.20;99.90;;;;;;5084017;28;20040;-58
2022/04/04 10:28:44;;;;;;;8.00;4.70;;;6.10;99.90;;;;;;5072748;28;20043;-51
2022/04/04 10:31:15;;;;;;;6.82;4.13;;;6.20;99.90;;;;;;5082273;28;20445;-52
2022/04/04 10:33:42;;;;;;;8.45;4.60;;;6.20;99.90;;;;;;5082493;28;20064;-52
2022/04/04 10:36:08;;;;;;;6.45;3.95;;;6.20;99.90;;;;;;5079059;28;20116;-54
2022/04/04 10:38:44;;;;;;;8.50;4.25;;;6.30;99.90;;;;;;5086517;28;21306;-56
2022/04/04 10:41:10;;;;;;;9.65;4.88;;;6.30;99.90;;;;;;5083516;28;20036;-55
2022/04/04 10:43:43;;;;;;;10.27;4.82;;;6.30;99.90;;;;;;5080059;28;20040;-54
2022/04/04 10:46:11;;;;;;;7.97;4.13;;;6.30;99.90;;;;;;5080489;28;20484;-52
2022/04/04 10:48:38;;;;;;;7.88;4.55;;;6.90;99.90;;;;;;5079976;28;20169;-55
2022/04/04 10:51:18;;;;;;;7.88;4.07;;;6.40;99.90;;;;;;5088534;28;20458;-54
2022/04/04 10:53:56;;;;;;;9.55;4.20;;;6.40;99.90;;;;;;5081762;28;20123;-49
2022/04/04 10:56:23;;;;;;;8.65;3.85;;;6.50;99.90;;;;;;5086560;28;20291;-53
2022/04/04 10:58:51;;;;;;;8.82;4.20;;;6.50;99.90;;;;;;5081952;28;20499;-52
2022/04/04 11:01:19;;;;;;;7.68;4.07;;;6.60;99.90;;;;;;5078440;28;20041;-52
2022/04/04 11:03:58;;;;;;;6.30;3.63;;;6.60;99.90;;;;;;5078861;28;20032;-56
2022/04/04 11:09:32;;;;;;;6.18;3.17;;;6.60;99.90;;;;;;5082072;28;20055;-54
2022/04/04 11:12:00;;;;;;;7.70;4.30;;;6.60;99.90;;;;;;5083577;28;20036;-55
2022/04/04 11:14:34;;;;;;;6.07;3.72;;;6.60;99.90;;;;;;5087429;28;20079;-52
2022/04/04 11:17:06;;;;;;;7.97;4.35;;;6.70;99.90;;;;;;5079345;28;20044;-53
2022/04/04 11:19:44;;;;;;;5.63;3.50;;;6.70;99.90;;;;;;5084623;28;20043;-53
2022/04/04 11:22:33;;;;;;;6.63;3.47;;;6.80;99.90;;;;;;5071884;28;20043;-55
2022/04/04 11:25:05;;;;;;;6.32;3.22;;;6.90;99.90;;;;;;5057421;28;20029;-55
2022/04/04 11:27:36;;;;;;;5.18;3.10;;;6.80;99.90;;;;;;5081999;28;20453;-58
2022/04/04 11:30:06;;;;;;;7.57;3.17;;;6.80;99.90;;;;;;5078720;28;20085;-56
2022/04/04 11:32:34;;;;;;;5.88;3.83;;;6.90;99.90;;;;;;5066830;28;20040;-56
2022/04/04 11:35:25;;;;;;;7.93;3.50;;;6.90;99.90;;;;;;5087787;28;20232;-54
2022/04/04 11:37:55;;;;;;;5.88;3.15;;;6.90;99.90;;;;;;5086270;28;20066;-53
2022/04/04 11:40:33;;;;;;;6.20;2.72;;;7.00;99.90;;;;;;5077662;28;20032;-56
2022/04/04 11:42:59;;;;;;;4.85;3.13;;;7.00;99.90;;;;;;5082163;28;20842;-54
2022/04/04 11:45:27;;;;;;;4.82;3.00;;;6.90;99.90;;;;;;5088190;28;20048;-56
2022/04/04 11:47:53;;;;;;;6.95;3.13;;;7.00;99.90;;;;;;5087507;28;20035;-56
2022/04/04 11:50:23;;;;;;;4.95;2.78;;;7.00;99.90;;;;;;5083012;28;20043;-52
2022/04/04 11:52:54;;;;;;;5.07;2.67;;;7.00;99.90;;;;;;5087067;28;20067;-54
2022/04/04 11:55:21;;;;;;;4.57;2.80;;;7.00;99.90;;;;;;5085061;28;20128;-57
2022/04/04 11:57:49;;;;;;;3.58;2.40;;;7.00;99.90;;;;;;5083615;28;20040;-57
2022/04/04 12:00:31;;;;;;;3.95;2.67;;;7.10;99.90;;;;;;5080115;28;20067;-56
2022/04/04 12:03:17;;;;;;;4.55;2.65;;;7.10;99.90;;;;;;5040317;28;20075;-56
2022/04/04 12:05:44;;;;;;;5.00;2.85;;;7.10;99.90;;;;;;5083025;28;20424;-53
2022/04/04 12:08:12;;;;;;;6.15;2.65;;;7.20;99.90;;;;;;5032004;28;20579;-54
2022/04/04 12:10:39;;;;;;;3.92;2.38;;;7.20;99.90;;;;;;5089420;28;20082;-55
2022/04/04 12:13:11;;;;;;;3.08;2.08;;;7.20;99.90;;;;;;5088572;28;20036;-56
2022/04/04 12:15:45;;;;;;;3.70;2.28;;;7.30;99.90;;;;;;5073090;28;20523;-51
2022/04/04 12:18:31;;;;;;;5.53;2.58;;;7.30;99.90;;;;;;5074055;28;20097;-52
2022/04/04 12:21:02;;;;;;;4.07;2.42;;;7.20;99.90;;;;;;5091179;28;20419;-55
2022/04/04 12:26:16;;;;;;;2.53;1.88;;;7.30;99.90;;;;;;5091806;28;20046;-52
2022/04/04 12:29:08;;;;;;;2.40;2.05;;;7.30;99.90;;;;;;5085664;28;20031;-52
2022/04/04 12:31:34;;;;;;;3.60;2.15;;;7.30;99.90;;;;;;5086587;28;20135;-56
2022/04/04 12:34:04;;;;;;;3.85;2.10;;;7.30;99.90;;;;;;5087180;28;20127;-52
2022/04/04 12:36:38;;;;;;;5.75;2.20;;;7.30;99.90;;;;;;5086129;28;20044;-51
2022/04/04 12:39:05;;;;;;;3.25;2.35;;;7.40;99.90;;;;;;5085407;28;20081;-54
2022/04/04 12:41:44;;;;;;;3.30;2.00;;;7.40;99.90;;;;;;5078832;28;20076;-57
2022/04/04 12:44:10;;;;;;;3.88;2.00;;;7.60;99.90;;;;;;5084273;28;20048;-51
2022/04/04 12:46:36;;;;;;;3.30;2.15;;;7.40;99.90;;;;;;5083812;28;20144;-54
2022/04/04 12:49:19;;;;;;;3.65;2.05;;;7.50;99.90;;;;;;5084810;28;20040;-52
2022/04/04 12:51:58;;;;;;;3.25;1.80;;;7.50;99.90;;;;;;5088164;28;20032;-56
2022/04/04 12:54:34;;;;;;;2.25;1.92;;;7.50;99.90;;;;;;5090509;28;20399;-52
2022/04/04 12:57:02;;;;;;;3.65;2.15;;;7.50;99.90;;;;;;5078264;28;20047;-53
2022/04/04 12:59:28;;;;;;;2.55;1.73;;;7.60;99.90;;;;;;5083535;28;20032;-52
2022/04/04 13:02:10;;;;;;;2.58;1.80;;;7.60;99.90;;;;;;5083596;28;20987;-52